createdAt,value
2022-12-24T00:00:29.614Z,43.20
2022-12-24T00:05:32.518Z,43.20
2022-12-24T00:10:35.326Z,43.30
2022-12-24T00:15:39.537Z,43.50
2022-12-24T00:20:42.449Z,43.50
2022-12-24T00:25:45.830Z,43.60
2022-12-24T00:30:50.139Z,43.70
2022-12-24T00:35:54.061Z,43.70
2022-12-24T00:41:00.367Z,43.80
2022-12-24T00:46:04.788Z,43.90
2022-12-24T00:51:07.619Z,43.90
2022-12-24T00:56:10.891Z,44.00
2022-12-24T01:01:15.503Z,43.90
2022-12-24T01:06:20.032Z,44.00
2022-12-24T01:11:22.904Z,44.00
2022-12-24T01:16:27.241Z,44.00
2022-12-24T01:21:30.181Z,44.00
2022-12-24T01:26:33.080Z,44.00
2022-12-24T01:31:37.291Z,44.00
2022-12-24T01:36:40.204Z,44.00
2022-12-24T01:42:00.475Z,44.00
2022-12-24T01:47:09.105Z,44.00
2022-12-24T01:52:15.839Z,44.10
2022-12-24T01:57:23.154Z,44.20
2022-12-24T02:02:29.808Z,44.20
2022-12-24T02:07:33.359Z,44.20
2022-12-24T02:12:38.067Z,44.10
2022-12-24T02:17:49.776Z,44.10
2022-12-24T02:23:10.658Z,44.10
2022-12-24T02:28:26.721Z,44.20
2022-12-24T02:33:36.599Z,44.20
2022-12-24T02:38:48.316Z,44.20
2022-12-24T02:43:54.143Z,44.20
2022-12-24T02:49:01.180Z,44.20
2022-12-24T02:54:04.127Z,44.20
2022-12-24T02:59:23.084Z,44.20
2022-12-24T03:04:42.670Z,44.20
2022-12-24T03:09:56.443Z,44.10
2022-12-24T03:15:00.409Z,44.20
2022-12-24T03:20:06.003Z,44.30
2022-12-24T03:25:09.519Z,44.20
2022-12-24T03:30:15.432Z,44.30
2022-12-24T03:35:19.980Z,44.30
2022-12-24T03:40:22.798Z,44.30
2022-12-24T03:45:25.894Z,44.30
2022-12-24T03:50:31.227Z,44.20
2022-12-24T03:55:34.088Z,44.30
2022-12-24T04:00:36.985Z,44.40
2022-12-24T04:05:41.148Z,44.30
2022-12-24T04:10:43.955Z,44.30
2022-12-24T04:15:46.758Z,44.30
2022-12-24T04:20:50.909Z,44.20
2022-12-24T04:25:53.756Z,44.30
2022-12-24T04:30:59.675Z,44.30
2022-12-24T04:36:06.608Z,44.30
2022-12-24T04:41:17.406Z,44.20
2022-12-24T04:46:27.402Z,44.20
2022-12-24T04:51:31.784Z,44.30
2022-12-24T04:56:34.839Z,44.20
2022-12-24T05:01:37.753Z,44.30
2022-12-24T05:06:42.042Z,44.40
2022-12-24T05:11:45.027Z,44.40
2022-12-24T05:16:47.873Z,44.40
2022-12-24T05:22:06.009Z,44.50
2022-12-24T05:27:08.865Z,44.50
2022-12-24T05:32:11.686Z,44.60
2022-12-24T05:37:15.900Z,43.90
2022-12-24T05:42:18.736Z,43.80
2022-12-24T05:47:21.579Z,43.90
2022-12-24T05:52:25.789Z,43.80
2022-12-24T05:57:28.649Z,43.90
2022-12-24T06:02:31.511Z,43.90
2022-12-24T06:07:35.891Z,44.00
2022-12-24T06:12:38.813Z,44.50
2022-12-24T06:17:41.772Z,43.90
2022-12-24T06:22:45.970Z,43.80
2022-12-24T06:27:48.803Z,43.90
2022-12-24T06:32:51.609Z,43.80
2022-12-24T06:37:55.789Z,44.30
2022-12-24T06:42:58.704Z,43.60
2022-12-24T06:48:02.073Z,43.50
2022-12-24T06:53:06.222Z,43.60
2022-12-24T06:58:09.020Z,43.50
2022-12-24T07:03:12.750Z,43.40
2022-12-24T07:08:16.892Z,43.50
2022-12-24T07:13:20.545Z,43.50
2022-12-24T07:18:23.365Z,43.50
2022-12-24T07:23:27.686Z,43.50
2022-12-24T07:28:31.044Z,43.50
2022-12-24T07:33:33.940Z,43.50
2022-12-24T07:38:39.326Z,43.40
2022-12-24T07:43:42.309Z,43.40
2022-12-24T07:48:45.131Z,43.30
2022-12-24T07:53:49.283Z,43.20
2022-12-24T07:58:52.890Z,43.00
2022-12-24T08:03:55.809Z,43.60
2022-12-24T08:09:00.012Z,42.90
2022-12-24T08:14:02.806Z,42.90
2022-12-24T08:19:05.643Z,42.80
2022-12-24T08:24:10.083Z,42.80
2022-12-24T08:29:12.942Z,42.80
2022-12-24T08:34:15.775Z,42.80
2022-12-24T08:39:20.175Z,42.80
2022-12-24T08:44:23.100Z,42.70
2022-12-24T08:49:25.923Z,42.60
2022-12-24T08:54:30.221Z,42.40
2022-12-24T08:59:33.061Z,42.40
2022-12-24T09:04:39.400Z,42.40
2022-12-24T09:09:43.664Z,42.40
2022-12-24T09:14:46.572Z,42.40
2022-12-24T09:19:49.429Z,42.40
2022-12-24T09:24:54.788Z,42.50
2022-12-24T09:29:57.603Z,42.40
2022-12-24T09:35:00.512Z,42.30
2022-12-24T09:40:05.114Z,42.20
2022-12-24T09:45:15.834Z,42.40
2022-12-24T09:50:36.747Z,42.40
2022-12-24T09:55:46.910Z,43.10
2022-12-24T10:00:50.665Z,42.50
2022-12-24T10:06:05.176Z,42.60
2022-12-24T10:11:17.816Z,42.60
2022-12-24T10:16:26.611Z,42.60
2022-12-24T10:21:39.031Z,42.50
2022-12-24T10:26:53.971Z,42.30
2022-12-24T10:32:02.149Z,42.10
2022-12-24T10:37:05.285Z,41.80
2022-12-24T10:42:10.377Z,41.70
2022-12-24T10:47:14.572Z,41.60
2022-12-24T10:52:21.075Z,41.40
2022-12-24T10:57:27.663Z,41.20
2022-12-24T11:02:33.842Z,41.20
2022-12-24T11:07:36.842Z,41.10
2022-12-24T11:13:05.770Z,41.10
2022-12-24T11:18:16.311Z,41.00
2022-12-24T11:23:19.376Z,40.90
2022-12-24T11:28:26.088Z,41.00
2022-12-24T11:33:29.891Z,41.00
2022-12-24T11:38:34.988Z,40.80
2022-12-24T11:43:51.027Z,40.80
2022-12-24T11:49:18.501Z,40.80
2022-12-24T11:54:29.028Z,40.70
2022-12-24T11:59:37.694Z,40.70
2022-12-24T12:04:43.495Z,40.70
2022-12-24T12:09:51.659Z,40.80
2022-12-24T12:15:00.665Z,40.80
2022-12-24T12:20:08.737Z,40.90
2022-12-24T12:25:19.856Z,41.50
2022-12-24T12:30:25.299Z,41.20
2022-12-24T12:35:32.936Z,41.20
2022-12-24T12:41:01.340Z,41.10
2022-12-24T12:46:15.528Z,41.30
2022-12-24T12:51:26.647Z,41.30
2022-12-24T12:56:33.045Z,41.30
2022-12-24T13:01:47.993Z,41.40
2022-12-24T13:07:11.204Z,41.50
2022-12-24T13:12:44.718Z,41.70
2022-12-24T13:18:09.046Z,42.20
2022-12-24T13:23:14.552Z,41.80
2022-12-24T13:28:33.685Z,42.20
2022-12-24T13:33:51.480Z,42.30
2022-12-24T13:38:56.997Z,42.30
2022-12-24T13:44:17.727Z,43.00
2022-12-24T13:49:27.034Z,42.50
2022-12-24T13:54:30.971Z,42.60
2022-12-24T13:59:38.945Z,42.60
2022-12-24T14:04:43.549Z,42.70
2022-12-24T14:09:50.330Z,42.70
2022-12-24T14:14:53.226Z,42.70
2022-12-24T14:20:00.094Z,42.70
2022-12-24T14:25:05.204Z,42.70
2022-12-24T14:30:16.985Z,42.40
2022-12-24T14:35:24.470Z,42.60
2022-12-24T14:40:29.963Z,42.70
2022-12-24T14:45:38.541Z,42.90
2022-12-24T14:50:52.705Z,42.70
2022-12-24T14:55:55.528Z,42.50
2022-12-24T15:01:00.551Z,42.60
2022-12-24T15:06:07.584Z,42.70
2022-12-24T15:11:15.355Z,42.70
2022-12-24T15:16:23.653Z,42.50
2022-12-24T15:21:31.376Z,42.50
2022-12-24T15:26:36.545Z,42.50
2022-12-24T15:31:39.500Z,42.60
2022-12-24T15:36:43.790Z,42.70
2022-12-24T15:42:00.951Z,42.70
2022-12-24T15:47:05.328Z,42.80
2022-12-24T15:52:11.498Z,42.60
2022-12-24T15:57:16.183Z,42.50
2022-12-24T16:02:41.226Z,42.60
2022-12-24T16:08:10.201Z,42.70
2022-12-24T16:13:17.318Z,42.60
2022-12-24T16:18:24.999Z,42.50
2022-12-24T16:23:35.250Z,42.40
2022-12-24T16:28:38.205Z,42.60
2022-12-24T16:33:41.035Z,42.50
2022-12-24T16:39:02.893Z,42.40
2022-12-24T16:44:05.796Z,42.60
2022-12-24T16:49:15.256Z,42.70
2022-12-24T16:54:19.457Z,42.80
2022-12-24T16:59:23.722Z,42.90
2022-12-24T17:04:26.535Z,43.00
2022-12-24T17:09:30.709Z,42.80
2022-12-24T17:14:33.731Z,42.60
2022-12-24T17:19:37.599Z,41.90
2022-12-24T17:24:42.025Z,39.80
2022-12-24T17:29:44.983Z,41.60
2022-12-24T17:34:47.873Z,41.60
2022-12-24T17:39:52.033Z,41.60
2022-12-24T17:44:54.940Z,41.70
2022-12-24T17:49:57.844Z,42.00
2022-12-24T17:55:02.055Z,42.30
2022-12-24T18:00:05.832Z,42.40
2022-12-24T18:05:09.279Z,42.60
2022-12-24T18:10:13.531Z,42.50
2022-12-24T18:15:19.668Z,42.60
2022-12-24T18:20:23.664Z,42.40
2022-12-24T18:25:27.912Z,42.40
2022-12-24T18:30:30.718Z,41.50
2022-12-24T18:35:33.561Z,41.50
2022-12-24T18:40:39.040Z,41.70
2022-12-24T18:45:42.037Z,41.70
2022-12-24T18:50:44.916Z,41.80
2022-12-24T18:55:49.136Z,41.90
2022-12-24T19:00:51.965Z,42.00
2022-12-24T19:05:54.763Z,42.20
2022-12-24T19:10:59.068Z,42.00
2022-12-24T19:16:02.174Z,41.90
2022-12-24T19:21:06.372Z,41.90
2022-12-24T19:26:11.319Z,41.90
2022-12-24T19:31:15.995Z,41.80
2022-12-24T19:36:20.779Z,41.70
2022-12-24T19:41:26.535Z,41.20
2022-12-24T19:46:31.753Z,41.10
2022-12-24T19:51:35.825Z,41.40
2022-12-24T19:56:40.968Z,41.40
2022-12-24T20:01:44.276Z,41.50
2022-12-24T20:06:47.383Z,41.60
2022-12-24T20:11:52.341Z,41.60
2022-12-24T20:16:55.253Z,41.80
2022-12-24T20:21:58.178Z,41.80
2022-12-24T20:27:02.325Z,41.90
2022-12-24T20:32:05.832Z,41.90
2022-12-24T20:37:08.909Z,42.10
2022-12-24T20:42:13.176Z,42.10
2022-12-24T20:47:16.083Z,42.10
2022-12-24T20:52:18.953Z,42.00
2022-12-24T20:57:26.754Z,42.10
2022-12-24T21:02:30.787Z,42.10
2022-12-24T21:07:33.703Z,42.20
2022-12-24T21:12:51.911Z,42.20
2022-12-24T21:17:55.034Z,42.30
2022-12-24T21:23:01.079Z,42.30
2022-12-24T21:28:06.012Z,42.40
2022-12-24T21:33:08.805Z,42.40
2022-12-24T21:38:11.663Z,42.50
2022-12-24T21:43:15.812Z,42.60
2022-12-24T21:48:32.562Z,42.60
2022-12-24T21:53:53.083Z,42.70
2022-12-24T21:58:57.215Z,42.70
2022-12-24T22:04:00.059Z,42.70
2022-12-24T22:09:21.668Z,42.60
2022-12-24T22:14:25.846Z,42.60
2022-12-24T22:19:29.178Z,42.70
2022-12-24T22:24:32.005Z,42.80
2022-12-24T22:29:36.209Z,42.80
2022-12-24T22:34:39.025Z,42.90
2022-12-24T22:39:41.831Z,43.00
2022-12-24T22:44:47.884Z,43.00
2022-12-24T22:49:50.672Z,43.10
2022-12-24T22:54:53.497Z,43.10
2022-12-24T22:59:57.696Z,43.10
2022-12-24T23:05:00.585Z,43.20
2022-12-24T23:10:03.769Z,43.20
2022-12-24T23:15:09.417Z,43.30
2022-12-24T23:20:12.633Z,43.30
2022-12-24T23:25:15.555Z,43.30
2022-12-24T23:30:19.978Z,43.40
2022-12-24T23:35:22.883Z,43.40
2022-12-24T23:40:26.020Z,43.50
2022-12-24T23:45:30.188Z,43.50
2022-12-24T23:50:32.993Z,43.40
2022-12-24T23:55:35.839Z,43.20
